Time;durP1;ratioP1;P1;durP2;ratioP2;P2;SDS_P1;SDS_P2;PMS_P1;PMS_P2;Temp;Humidity;BMP_temperature;BMP_pressure;BME280_temperature;BME280_humidity;BME280_pressure;Samples;Min_cycle;Max_cycle;Signal;HPM_P1;HPM_P2
2022/07/21 00:02:20;;;;;;;7.40;4.40;;;20.00;99.10;;;;;;5113580;28;20061;-46
2022/07/21 00:04:46;;;;;;;8.88;4.60;;;20.00;98.60;;;;;;5113281;28;20027;-45
2022/07/21 00:07:12;;;;;;;6.38;4.00;;;19.90;98.80;;;;;;5112824;28;20085;-41
2022/07/21 00:09:37;;;;;;;6.85;4.10;;;19.90;98.60;;;;;;5113261;28;20026;-41
2022/07/21 00:12:04;;;;;;;7.68;4.28;;;19.90;99.60;;;;;;5113158;28;20539;-41
2022/07/21 00:14:30;;;;;;;8.45;4.10;;;19.80;99.80;;;;;;5113262;28;20150;-42
2022/07/21 00:16:55;;;;;;;9.15;4.43;;;19.80;99.90;;;;;;5113179;28;20111;-41
2022/07/21 00:19:21;;;;;;;8.30;4.47;;;19.70;99.90;;;;;;5113261;28;20031;-44
2022/07/21 00:21:47;;;;;;;7.82;4.35;;;19.70;99.90;;;;;;5112684;28;20486;-44
2022/07/21 00:24:12;;;;;;;8.65;4.25;;;19.60;99.90;;;;;;5113359;28;20032;-50
2022/07/21 00:26:38;;;;;;;7.43;3.85;;;19.60;99.90;;;;;;5113178;28;20475;-49
2022/07/21 00:29:04;;;;;;;7.70;3.83;;;19.60;99.90;;;;;;5112917;28;20030;-42
2022/07/21 00:31:29;;;;;;;9.02;4.13;;;19.60;99.90;;;;;;5112537;28;20031;-45
2022/07/21 00:33:55;;;;;;;8.55;4.22;;;19.50;99.90;;;;;;5112810;28;20078;-44
2022/07/21 00:36:21;;;;;;;8.32;3.50;;;19.50;99.90;;;;;;5112951;28;20031;-47
2022/07/21 00:38:48;;;;;;;6.93;3.40;;;19.40;99.90;;;;;;5112905;28;20042;-44
2022/07/21 00:41:14;;;;;;;7.50;4.32;;;19.40;99.90;;;;;;5112471;28;20467;-42
2022/07/21 00:43:39;;;;;;;7.35;3.85;;;19.30;99.90;;;;;;5112575;28;20024;-48
2022/07/21 00:46:05;;;;;;;8.00;3.78;;;19.30;99.90;;;;;;5112754;28;20568;-45
2022/07/21 00:48:31;;;;;;;6.35;4.00;;;19.20;99.90;;;;;;5112701;28;20044;-41
2022/07/21 00:50:57;;;;;;;7.32;4.18;;;19.10;99.90;;;;;;5112332;28;20035;-41
2022/07/21 00:53:23;;;;;;;8.60;4.90;;;19.10;99.90;;;;;;5112237;28;20050;-48
2022/07/21 00:55:48;;;;;;;7.50;4.20;;;19.00;99.90;;;;;;5112383;28;20500;-42
2022/07/21 00:58:14;;;;;;;7.78;4.43;;;18.90;99.90;;;;;;5106366;28;20098;-40
2022/07/21 01:00:40;;;;;;;7.13;4.10;;;18.90;99.90;;;;;;5104354;28;20055;-41
2022/07/21 01:03:07;;;;;;;8.88;4.30;;;18.90;99.90;;;;;;5112254;28;20020;-47
2022/07/21 01:05:33;;;;;;;8.60;4.43;;;18.90;99.90;;;;;;5112410;28;20077;-47
2022/07/21 01:08:02;;;;;;;8.18;4.28;;;18.80;99.90;;;;;;5112305;28;20019;-46
2022/07/21 01:10:29;;;;;;;8.27;5.05;;;18.80;99.90;;;;;;5111962;28;20050;-41
2022/07/21 01:12:55;;;;;;;9.25;4.82;;;18.80;99.90;;;;;;5110634;28;20072;-44
2022/07/21 01:15:22;;;;;;;7.13;4.68;;;18.80;99.90;;;;;;5111852;28;20033;-42
2022/07/21 01:17:48;;;;;;;9.02;5.38;;;18.70;99.90;;;;;;5112096;28;20474;-41
2022/07/21 01:20:17;;;;;;;8.32;5.05;;;18.70;99.90;;;;;;5111784;28;20031;-50
2022/07/21 01:22:46;;;;;;;9.50;5.25;;;18.70;99.90;;;;;;5111704;28;20042;-43
2022/07/21 01:25:12;;;;;;;;;;;18.70;99.90;;;;;;5112346;28;20073;-41
2022/07/21 01:27:38;;;;;;;9.48;4.85;;;18.80;99.90;;;;;;5111942;28;19908;-45
2022/07/21 01:30:07;;;;;;;11.38;5.25;;;18.80;99.90;;;;;;5111442;28;20027;-45
2022/07/21 01:32:34;;;;;;;;;;;18.80;99.90;;;;;;5112313;28;20019;-45
2022/07/21 01:34:59;;;;;;;13.30;6.03;;;18.70;99.90;;;;;;5111733;28;19911;-42
2022/07/21 01:37:29;;;;;;;11.30;6.18;;;18.70;99.90;;;;;;5111782;28;20027;-42
2022/07/21 01:42:39;;;;;;;8.82;5.95;;;18.70;99.90;;;;;;5111345;28;20054;-41
2022/07/21 01:45:06;;;;;;;11.65;6.40;;;18.70;99.90;;;;;;5111385;28;20383;-49
2022/07/21 01:47:32;;;;;;;13.15;6.75;;;18.70;99.90;;;;;;5111515;28;20024;-43
2022/07/21 01:49:58;;;;;;;11.82;7.05;;;18.70;99.90;;;;;;5111257;28;20028;-42
2022/07/21 01:52:24;;;;;;;11.20;7.10;;;18.70;99.90;;;;;;5111264;28;20054;-43
2022/07/21 01:54:50;;;;;;;11.25;7.85;;;18.70;99.90;;;;;;5111453;28;20039;-41
2022/07/21 01:57:16;;;;;;;12.10;7.53;;;18.60;99.90;;;;;;5111468;28;20256;-41
2022/07/21 01:59:42;;;;;;;15.70;8.35;;;18.60;99.90;;;;;;5111191;28;20446;-44
2022/07/21 02:02:07;;;;;;;12.65;7.72;;;18.60;99.90;;;;;;5111118;28;20110;-41
2022/07/21 02:04:34;;;;;;;12.77;7.75;;;18.60;99.90;;;;;;5111371;28;20420;-41
2022/07/21 02:07:01;;;;;;;12.10;6.93;;;18.60;99.90;;;;;;5111542;28;20340;-44
2022/07/21 02:09:27;;;;;;;12.32;7.53;;;18.60;99.90;;;;;;5111572;28;20031;-46
2022/07/21 02:11:53;;;;;;;10.32;6.78;;;18.60;99.90;;;;;;5111138;28;20031;-44
2022/07/21 02:14:18;;;;;;;15.10;8.55;;;18.60;99.90;;;;;;5111056;28;20027;-53
2022/07/21 02:16:44;;;;;;;9.90;7.18;;;18.60;99.90;;;;;;5111448;28;20482;-46
2022/07/21 02:19:10;;;;;;;11.85;7.13;;;18.60;99.90;;;;;;5111013;28;20032;-44
2022/07/21 02:21:36;;;;;;;14.70;7.43;;;18.60;99.90;;;;;;5110998;28;20032;-53
2022/07/21 02:24:01;;;;;;;13.57;7.78;;;18.50;99.90;;;;;;5111337;28;20478;-41
2022/07/21 02:26:27;;;;;;;10.20;7.03;;;18.50;99.90;;;;;;5111119;28;20028;-48
2022/07/21 02:28:53;;;;;;;14.20;7.15;;;18.50;99.90;;;;;;5111237;28;20490;-43
2022/07/21 02:31:18;;;;;;;11.30;6.53;;;18.50;99.90;;;;;;5110899;28;20020;-45
2022/07/21 02:33:44;;;;;;;10.65;6.70;;;18.50;99.90;;;;;;5111151;28;20035;-41
2022/07/21 02:36:10;;;;;;;12.15;6.90;;;18.50;99.90;;;;;;5111202;28;20016;-46
2022/07/21 02:38:36;;;;;;;10.25;7.45;;;18.50;99.90;;;;;;5111117;28;20474;-49
2022/07/21 02:41:02;;;;;;;11.90;6.88;;;18.50;99.90;;;;;;5110739;28;20035;-46
2022/07/21 02:43:28;;;;;;;10.88;7.30;;;18.40;99.90;;;;;;5110776;28;20028;-42
2022/07/21 02:45:53;;;;;;;11.77;7.22;;;18.40;99.90;;;;;;5111306;28;20031;-42
2022/07/21 02:48:19;;;;;;;10.65;7.15;;;18.40;99.90;;;;;;5111106;28;20481;-43
2022/07/21 02:50:45;;;;;;;12.20;6.80;;;18.40;99.90;;;;;;5110564;28;20022;-47
2022/07/21 02:53:19;;;;;;;13.63;7.18;;;18.40;99.90;;;;;;5111567;28;20432;-41
2022/07/21 02:55:51;;;;;;;12.25;6.30;;;18.40;99.90;;;;;;5114513;28;20031;-48
2022/07/21 02:58:24;;;;;;;9.00;6.00;;;18.30;99.90;;;;;;5111108;27;20546;-45
2022/07/21 03:00:52;;;;;;;11.18;5.90;;;18.30;99.90;;;;;;5121781;27;20474;-41
2022/07/21 03:03:20;;;;;;;10.15;6.07;;;18.30;99.90;;;;;;5119951;27;20020;-45
2022/07/21 03:05:46;;;;;;;10.88;5.63;;;18.20;99.90;;;;;;5123265;27;20031;-41
2022/07/21 03:08:12;;;;;;;12.38;5.50;;;18.20;99.90;;;;;;5119330;27;20060;-45
2022/07/21 03:10:39;;;;;;;7.72;5.40;;;18.10;99.90;;;;;;5123800;27;20550;-41
2022/07/21 03:13:05;;;;;;;8.48;4.90;;;18.10;99.90;;;;;;5118931;27;20034;-50
2022/07/21 03:15:32;;;;;;;8.18;4.97;;;18.10;99.90;;;;;;5117349;27;20023;-41
2022/07/21 03:17:58;;;;;;;8.80;4.72;;;18.10;99.90;;;;;;5120592;27;20020;-40
2022/07/21 03:20:30;;;;;;;8.40;4.65;;;18.10;99.90;;;;;;5118267;27;20032;-43
2022/07/21 03:22:55;;;;;;;6.97;4.28;;;18.00;99.90;;;;;;5114079;28;20024;-40
2022/07/21 03:25:21;;;;;;;9.32;5.10;;;18.00;99.90;;;;;;5114409;28;20034;-45
2022/07/21 03:27:48;;;;;;;8.85;4.80;;;18.00;99.90;;;;;;5114343;28;20024;-43
2022/07/21 03:30:15;;;;;;;7.00;4.43;;;18.00;99.90;;;;;;5114060;28;20027;-44
2022/07/21 03:32:41;;;;;;;9.45;5.43;;;18.00;99.90;;;;;;5114197;28;20024;-44
2022/07/21 03:35:10;;;;;;;7.60;5.00;;;18.00;99.90;;;;;;5114057;28;20506;-40
2022/07/21 03:37:46;;;;;;;8.87;4.90;;;18.00;99.90;;;;;;5114019;28;20458;-43
2022/07/21 03:40:15;;;;;;;9.73;4.68;;;18.00;99.90;;;;;;5099943;28;20279;-41
2022/07/21 03:42:41;;;;;;;7.10;4.53;;;18.00;99.90;;;;;;5113777;28;20478;-43
2022/07/21 03:45:07;;;;;;;8.63;4.55;;;18.00;99.90;;;;;;5113791;28;20034;-41
2022/07/21 03:47:33;;;;;;;8.30;4.53;;;18.00;99.90;;;;;;5113761;28;20461;-47
2022/07/21 03:49:59;;;;;;;13.30;4.90;;;18.00;99.90;;;;;;5113475;28;20120;-42
2022/07/21 03:52:24;;;;;;;8.77;4.25;;;17.90;99.90;;;;;;5113418;28;20031;-42
2022/07/21 03:55:07;;;;;;;7.10;4.20;;;18.00;99.90;;;;;;5113515;28;20100;-45
2022/07/21 03:57:37;;;;;;;7.47;4.50;;;18.00;99.90;;;;;;5113712;28;20051;-43
2022/07/21 04:00:06;;;;;;;7.70;4.60;;;17.90;99.90;;;;;;5113348;28;20046;-40
2022/07/21 04:02:31;;;;;;;8.97;5.13;;;17.90;99.90;;;;;;5113479;28;20395;-41
2022/07/21 04:04:57;;;;;;;7.78;4.63;;;17.90;99.90;;;;;;5112888;28;20329;-41
2022/07/21 04:07:23;;;;;;;7.25;4.43;;;17.90;99.90;;;;;;5113532;28;20103;-45
2022/07/21 04:09:48;;;;;;;8.35;4.20;;;17.90;99.90;;;;;;5113132;28;20023;-41
2022/07/21 04:12:14;;;;;;;10.10;4.90;;;17.90;99.90;;;;;;5113328;28;20024;-41
2022/07/21 04:14:39;;;;;;;7.65;4.18;;;17.90;99.90;;;;;;5113252;28;20074;-41
2022/07/21 04:17:05;;;;;;;7.13;4.30;;;17.90;99.90;;;;;;5113049;28;20035;-41
2022/07/21 04:19:31;;;;;;;5.70;3.95;;;17.90;99.90;;;;;;5094874;28;20019;-41
2022/07/21 04:21:58;;;;;;;6.70;4.07;;;17.90;99.90;;;;;;5113099;28;20466;-41
2022/07/21 04:24:23;;;;;;;7.15;4.07;;;17.90;99.90;;;;;;5112987;28;20032;-45
2022/07/21 04:26:49;;;;;;;7.88;4.13;;;17.90;99.90;;;;;;5112996;28;20045;-41
2022/07/21 04:29:15;;;;;;;7.05;4.00;;;17.90;99.90;;;;;;5112961;28;20028;-41
2022/07/21 04:31:40;;;;;;;6.07;3.58;;;17.90;99.90;;;;;;5112554;28;20031;-40
2022/07/21 04:34:06;;;;;;;6.43;3.53;;;17.90;99.90;;;;;;5112949;28;20119;-43
2022/07/21 04:36:32;;;;;;;9.38;3.80;;;17.90;99.90;;;;;;5112848;28;20023;-41
2022/07/21 04:38:57;;;;;;;7.45;3.95;;;17.90;99.90;;;;;;5112978;28;20033;-44
2022/07/21 04:41:23;;;;;;;7.90;3.88;;;17.90;99.90;;;;;;5112441;28;20016;-43
2022/07/21 04:43:48;;;;;;;7.88;3.92;;;17.90;99.90;;;;;;5112843;28;20058;-41
2022/07/21 04:46:15;;;;;;;4.93;3.10;;;17.80;99.90;;;;;;5112622;28;20022;-41
2022/07/21 04:48:41;;;;;;;6.25;3.25;;;17.80;99.90;;;;;;5112756;28;20103;-40
2022/07/21 04:51:06;;;;;;;6.50;3.40;;;17.80;99.90;;;;;;5112207;28;20102;-41
2022/07/21 04:53:32;;;;;;;8.55;3.25;;;17.90;99.90;;;;;;5112177;28;20040;-41
2022/07/21 04:55:58;;;;;;;6.93;3.60;;;17.90;99.90;;;;;;5112617;28;20122;-46
2022/07/21 04:58:23;;;;;;;6.53;3.55;;;17.90;99.90;;;;;;5094065;28;20026;-46
2022/07/21 05:00:49;;;;;;;7.30;3.28;;;17.90;99.90;;;;;;5112055;28;20020;-43
2022/07/21 05:03:15;;;;;;;5.65;3.15;;;17.90;99.90;;;;;;5112411;28;20028;-49
2022/07/21 05:05:41;;;;;;;8.02;3.15;;;17.90;99.90;;;;;;5112402;28;20107;-41
2022/07/21 05:08:06;;;;;;;8.23;2.90;;;17.90;99.90;;;;;;5100232;28;20429;-41
2022/07/21 05:10:32;;;;;;;5.97;3.03;;;17.90;99.90;;;;;;5109858;28;20057;-44
2022/07/21 05:12:58;;;;;;;7.10;3.17;;;17.90;99.90;;;;;;5103659;28;20020;-41
2022/07/21 05:15:23;;;;;;;5.80;2.67;;;17.90;99.90;;;;;;5111983;28;20031;-42
2022/07/21 05:17:49;;;;;;;6.82;3.28;;;18.00;99.90;;;;;;5111200;28;20037;-47
2022/07/21 05:20:15;;;;;;;5.25;2.90;;;18.00;99.90;;;;;;5111710;28;20108;-44
2022/07/21 05:22:41;;;;;;;6.70;2.80;;;18.00;99.90;;;;;;5112015;28;20024;-41
2022/07/21 05:25:07;;;;;;;7.85;3.10;;;18.00;99.90;;;;;;5112018;28;20038;-44
2022/07/21 05:27:34;;;;;;;7.35;3.17;;;18.10;99.90;;;;;;5111779;28;20048;-44
2022/07/21 05:30:00;;;;;;;7.93;2.83;;;18.10;99.90;;;;;;5111735;28;20023;-44
2022/07/21 05:32:26;;;;;;;5.78;2.92;;;18.10;99.90;;;;;;5111868;28;20453;-49
2022/07/21 05:34:51;;;;;;;4.82;2.70;;;18.20;99.90;;;;;;5111612;28;20529;-42
2022/07/21 05:37:17;;;;;;;5.75;2.80;;;18.20;99.90;;;;;;5111930;28;20019;-41
2022/07/21 05:39:43;;;;;;;5.65;2.90;;;18.30;99.90;;;;;;5111329;28;20123;-48
2022/07/21 05:42:08;;;;;;;6.07;2.50;;;18.30;99.90;;;;;;5111772;28;20063;-42
2022/07/21 05:44:34;;;;;;;7.63;2.90;;;18.40;99.90;;;;;;5111516;28;20031;-49
2022/07/21 05:46:59;;;;;;;7.40;2.70;;;18.40;99.90;;;;;;5111718;28;20477;-41
2022/07/21 05:49:25;;;;;;;6.88;2.70;;;18.50;99.90;;;;;;5111682;28;20037;-44
2022/07/21 05:51:51;;;;;;;5.97;2.80;;;18.50;99.90;;;;;;5111525;28;20016;-44
2022/07/21 05:54:17;;;;;;;5.65;2.80;;;18.60;99.90;;;;;;5111131;28;20051;-43
2022/07/21 05:56:42;;;;;;;8.20;2.78;;;18.70;99.90;;;;;;5110393;28;20042;-42
2022/07/21 05:59:08;;;;;;;11.52;3.00;;;18.80;99.90;;;;;;5110281;28;20023;-41
2022/07/21 06:01:34;;;;;;;7.07;2.80;;;18.90;99.90;;;;;;5110876;28;20463;-43
2022/07/21 06:03:59;;;;;;;9.18;3.15;;;19.00;99.90;;;;;;5103126;28;20027;-50
2022/07/21 06:06:25;;;;;;;6.72;2.40;;;19.30;98.80;;;;;;5111410;28;20034;-43
2022/07/21 06:08:51;;;;;;;4.22;2.25;;;20.30;98.10;;;;;;5111264;28;20023;-47
2022/07/21 06:11:19;;;;;;;4.90;2.45;;;21.30;95.90;;;;;;5111505;28;20031;-50
2022/07/21 06:13:45;;;;;;;5.78;2.20;;;22.10;94.00;;;;;;5092729;28;20483;-44
2022/07/21 06:16:11;;;;;;;5.13;2.20;;;23.10;92.10;;;;;;5111518;28;20076;-50
2022/07/21 06:18:37;;;;;;;5.55;2.10;;;23.90;91.10;;;;;;5111148;28;20045;-45
2022/07/21 06:21:03;;;;;;;4.82;1.92;;;24.40;88.90;;;;;;5111272;28;20028;-49
2022/07/21 06:23:29;;;;;;;5.10;1.80;;;24.80;85.70;;;;;;5111466;28;20268;-42
2022/07/21 06:25:56;;;;;;;4.00;2.00;;;24.20;85.20;;;;;;5111202;28;20470;-48
2022/07/21 06:28:22;;;;;;;5.53;1.88;;;24.10;86.10;;;;;;5112534;28;20478;-45
2022/07/21 06:30:49;;;;;;;5.38;1.80;;;23.70;88.40;;;;;;5114973;28;20016;-46
2022/07/21 06:33:15;;;;;;;5.30;1.90;;;23.20;88.40;;;;;;5114985;28;20099;-47
2022/07/21 06:35:41;;;;;;;3.83;1.73;;;22.80;90.50;;;;;;5115227;28;20049;-45
2022/07/21 06:38:06;;;;;;;4.35;2.00;;;22.40;90.50;;;;;;5115104;28;20024;-47
2022/07/21 06:40:32;;;;;;;5.32;2.28;;;22.20;91.90;;;;;;5115118;28;20486;-44
2022/07/21 06:42:58;;;;;;;5.32;2.17;;;22.10;91.30;;;;;;5114914;28;20016;-42
2022/07/21 06:45:24;;;;;;;5.70;2.38;;;22.00;92.40;;;;;;5115033;28;20176;-46
2022/07/21 06:47:50;;;;;;;4.07;2.03;;;22.50;93.10;;;;;;5107918;28;20023;-48
2022/07/21 06:50:16;;;;;;;5.75;2.10;;;23.20;90.80;;;;;;5124936;27;20023;-43
2022/07/21 06:52:42;;;;;;;5.75;2.00;;;24.00;89.30;;;;;;5118255;27;20016;-49
2022/07/21 06:55:08;;;;;;;4.88;1.77;;;24.70;88.30;;;;;;5120054;27;20035;-47
2022/07/21 06:57:35;;;;;;;4.80;1.80;;;25.70;84.50;;;;;;5116451;27;20045;-47
2022/07/21 07:00:04;;;;;;;4.93;1.75;;;26.00;81.10;;;;;;5117306;27;20032;-46
2022/07/21 07:02:30;;;;;;;7.55;2.00;;;26.40;80.90;;;;;;5112200;27;20020;-45
2022/07/21 07:04:56;;;;;;;6.70;1.90;;;26.70;82.50;;;;;;5114109;27;20582;-48
2022/07/21 07:07:22;;;;;;;4.00;1.45;;;26.90;77.90;;;;;;5132683;27;20035;-44
2022/07/21 07:09:48;;;;;;;4.68;2.08;;;27.10;78.40;;;;;;5116518;27;20103;-46
2022/07/21 07:12:14;;;;;;;4.47;1.70;;;27.90;78.20;;;;;;5116447;27;20022;-48
2022/07/21 07:14:40;;;;;;;3.88;1.75;;;27.90;75.10;;;;;;5114087;27;20035;-46
2022/07/21 07:17:05;;;;;;;3.13;1.60;;;28.20;73.10;;;;;;5117715;27;20024;-49
2022/07/21 07:19:31;;;;;;;4.78;1.90;;;28.50;72.80;;;;;;5128359;27;20011;-45
2022/07/21 07:21:58;;;;;;;4.88;1.80;;;28.50;73.10;;;;;;5113908;28;20839;-41
2022/07/21 07:24:24;;;;;;;5.88;1.70;;;28.60;71.10;;;;;;5114052;28;20023;-51
2022/07/21 07:26:50;;;;;;;7.15;2.00;;;28.70;68.60;;;;;;5114167;28;20493;-46
2022/07/21 07:29:15;;;;;;;3.17;1.50;;;28.80;71.50;;;;;;5114061;28;20149;-46
2022/07/21 07:31:41;;;;;;;6.82;2.70;;;28.90;68.90;;;;;;5112630;28;20470;-47
2022/07/21 07:34:07;;;;;;;5.05;2.17;;;29.20;67.70;;;;;;5116148;27;20035;-48
2022/07/21 07:36:33;;;;;;;4.55;1.73;;;29.50;68.60;;;;;;5114586;27;20023;-41
2022/07/21 07:38:59;;;;;;;5.10;1.73;;;29.80;66.00;;;;;;5113535;27;20022;-47
2022/07/21 07:41:26;;;;;;;5.13;1.85;;;30.00;65.90;;;;;;5112063;27;20019;-47
2022/07/21 07:43:52;;;;;;;5.43;2.00;;;30.10;63.60;;;;;;5113641;27;20089;-42
2022/07/21 07:46:19;;;;;;;5.30;2.00;;;30.30;64.50;;;;;;5117957;27;20391;-50
2022/07/21 07:48:47;;;;;;;5.05;1.98;;;30.40;64.50;;;;;;5114050;27;20029;-43
2022/07/21 07:51:13;;;;;;;4.03;1.65;;;30.60;61.50;;;;;;5114733;27;21127;-49
2022/07/21 07:53:39;;;;;;;7.78;2.08;;;31.20;60.90;;;;;;5113904;27;20048;-48
2022/07/21 07:56:06;;;;;;;5.53;1.90;;;31.40;59.40;;;;;;5114120;27;20474;-47
2022/07/21 07:58:32;;;;;;;6.03;2.00;;;31.70;59.30;;;;;;5113309;27;20117;-46
2022/07/21 08:00:58;;;;;;;6.32;2.20;;;31.80;59.50;;;;;;5115907;27;20020;-47
2022/07/21 08:03:25;;;;;;;5.10;1.90;;;31.60;59.40;;;;;;5117440;27;20390;-46
2022/07/21 08:05:51;;;;;;;3.97;1.50;;;31.70;58.60;;;;;;5115000;27;20012;-41
2022/07/21 08:08:17;;;;;;;3.78;1.48;;;32.10;58.60;;;;;;5115381;27;20022;-42
2022/07/21 08:10:45;;;;;;;6.80;1.73;;;32.30;59.00;;;;;;5113233;27;20035;-49
2022/07/21 08:13:17;;;;;;;3.75;1.58;;;32.70;56.30;;;;;;5113301;27;20053;-48
2022/07/21 08:15:44;;;;;;;6.60;2.03;;;32.90;56.00;;;;;;5112058;28;20043;-46
2022/07/21 08:18:11;;;;;;;3.75;1.50;;;33.10;53.00;;;;;;5116191;27;20020;-49
2022/07/21 08:20:37;;;;;;;5.20;2.10;;;33.00;54.20;;;;;;5114080;27;20024;-55
2022/07/21 08:23:04;;;;;;;6.45;2.03;;;33.30;55.40;;;;;;5116860;27;20024;-42
2022/07/21 08:25:29;;;;;;;5.03;1.90;;;33.70;53.20;;;;;;5114671;27;20386;-49
2022/07/21 08:27:55;;;;;;;5.45;2.00;;;34.10;51.90;;;;;;5115102;27;20023;-42
2022/07/21 08:30:21;;;;;;;7.22;2.15;;;34.10;50.50;;;;;;5107368;27;20094;-43
2022/07/21 08:32:47;;;;;;;5.35;2.17;;;34.40;50.10;;;;;;5113924;27;20448;-43
2022/07/21 08:35:13;;;;;;;4.63;2.08;;;34.60;49.40;;;;;;5113043;27;20027;-46
2022/07/21 08:37:39;;;;;;;4.47;1.95;;;34.60;47.40;;;;;;5112451;27;20378;-43
2022/07/21 08:40:07;;;;;;;5.28;2.05;;;34.60;48.40;;;;;;5125638;27;20038;-47
2022/07/21 08:42:33;;;;;;;5.80;2.30;;;34.70;48.40;;;;;;5111834;27;20042;-43
2022/07/21 08:44:59;;;;;;;6.30;2.00;;;35.10;47.90;;;;;;5126344;27;20040;-52
2022/07/21 08:47:26;;;;;;;4.47;1.75;;;35.40;47.00;;;;;;5130881;27;20015;-48
2022/07/21 08:49:53;;;;;;;5.82;2.25;;;35.40;47.30;;;;;;5115288;27;20027;-47
2022/07/21 08:52:19;;;;;;;3.88;1.77;;;35.20;46.30;;;;;;5113902;27;20084;-45
2022/07/21 08:54:44;;;;;;;4.88;1.83;;;35.00;46.60;;;;;;5115285;27;20051;-45
2022/07/21 08:57:10;;;;;;;4.65;1.98;;;34.90;46.20;;;;;;5114805;27;20028;-44
2022/07/21 08:59:36;;;;;;;6.65;2.38;;;35.20;46.70;;;;;;5120762;27;20065;-48
2022/07/21 09:02:03;;;;;;;7.60;1.90;;;35.30;47.70;;;;;;5119208;27;20410;-46
2022/07/21 09:04:32;;;;;;;5.10;2.13;;;35.00;46.90;;;;;;5112850;27;20034;-47
2022/07/21 09:07:04;;;;;;;5.20;2.40;;;35.10;46.40;;;;;;5116186;27;20028;-44
2022/07/21 09:09:31;;;;;;;6.35;2.15;;;34.60;46.30;;;;;;5113192;27;20031;-44
2022/07/21 09:11:58;;;;;;;3.97;1.90;;;34.40;47.20;;;;;;5113573;27;20433;-45
2022/07/21 09:14:26;;;;;;;6.17;2.30;;;34.40;48.00;;;;;;5113116;27;20035;-45
2022/07/21 09:16:55;;;;;;;5.13;2.25;;;34.20;45.70;;;;;;5124154;27;20131;-45
2022/07/21 09:19:22;;;;;;;;;;;34.30;47.30;;;;;;5117785;27;20118;-43
2022/07/21 09:21:49;;;;;;;5.55;2.20;;;34.20;49.10;;;;;;5111655;28;19908;-49
2022/07/21 09:24:41;;;;;;;6.57;1.85;;;34.20;47.30;;;;;;5110993;28;20016;-45
2022/07/21 09:27:12;;;;;;;5.03;2.20;;;34.30;47.40;;;;;;5107580;27;20040;-45
2022/07/21 09:29:48;;;;;;;4.65;2.00;;;34.40;46.30;;;;;;5113021;27;20551;-47
2022/07/21 09:32:20;;;;;;;5.70;2.20;;;34.40;48.60;;;;;;5112766;27;20019;-46
2022/07/21 09:34:57;;;;;;;4.65;2.15;;;34.50;46.50;;;;;;5112822;27;20035;-47
2022/07/21 09:37:24;;;;;;;4.78;2.22;;;34.20;47.10;;;;;;5111746;27;20058;-44
2022/07/21 09:39:56;;;;;;;4.93;2.72;;;34.40;45.90;;;;;;5110580;28;20028;-49
2022/07/21 09:42:40;;;;;;;5.07;2.33;;;34.60;47.70;;;;;;5112904;27;20019;-46
2022/07/21 09:45:15;;;;;;;7.93;2.38;;;34.60;46.40;;;;;;5114134;27;20046;-50
2022/07/21 09:47:42;;;;;;;5.80;2.40;;;35.00;46.20;;;;;;5108437;27;20032;-43
2022/07/21 09:50:11;;;;;;;6.25;2.80;;;35.00;44.60;;;;;;5113904;27;20024;-44
2022/07/21 09:52:39;;;;;;;4.70;2.22;;;34.60;45.80;;;;;;5109842;27;20080;-49
2022/07/21 09:55:07;;;;;;;3.80;2.17;;;34.60;46.10;;;;;;5109802;28;20155;-42
2022/07/21 09:57:34;;;;;;;6.63;2.58;;;34.30;45.00;;;;;;5106461;28;20027;-46
2022/07/21 10:00:02;;;;;;;5.05;2.25;;;33.80;46.10;;;;;;5111347;27;20553;-48
2022/07/21 10:02:29;;;;;;;7.93;2.53;;;33.40;46.90;;;;;;5091949;28;20374;-42
2022/07/21 10:05:07;;;;;;;6.40;2.47;;;33.20;47.50;;;;;;5110491;27;20145;-45
2022/07/21 10:07:38;;;;;;;7.05;2.85;;;33.40;49.40;;;;;;5105151;28;20086;-47
2022/07/21 10:10:04;;;;;;;4.68;2.60;;;33.30;47.20;;;;;;5105389;28;20138;-45
2022/07/21 10:12:31;;;;;;;6.70;2.50;;;33.80;49.80;;;;;;5112486;28;20031;-46
2022/07/21 10:14:57;;;;;;;6.50;2.50;;;33.60;46.20;;;;;;5109438;28;20036;-52
2022/07/21 10:17:25;;;;;;;6.95;2.80;;;33.40;46.60;;;;;;5112350;28;20020;-46
2022/07/21 10:20:12;;;;;;;6.85;3.10;;;33.10;48.50;;;;;;5110596;28;20023;-45
2022/07/21 10:23:10;;;;;;;4.30;2.30;;;33.40;48.30;;;;;;5113778;28;20444;-49
2022/07/21 10:25:37;;;;;;;6.18;2.42;;;33.50;47.00;;;;;;5110306;28;20111;-47
2022/07/21 10:28:14;;;;;;;6.90;2.80;;;33.50;48.90;;;;;;5111821;28;20455;-50
2022/07/21 10:30:47;;;;;;;4.75;2.35;;;33.10;48.10;;;;;;5108958;28;20115;-47
2022/07/21 10:33:15;;;;;;;7.28;2.63;;;33.00;49.60;;;;;;5091551;28;20363;-49
2022/07/21 10:35:51;;;;;;;6.25;2.78;;;33.00;50.30;;;;;;5111240;28;20048;-45
2022/07/21 10:38:31;;;;;;;4.20;2.40;;;32.70;48.00;;;;;;5110454;28;20024;-43
2022/07/21 10:40:58;;;;;;;7.38;2.45;;;32.40;49.40;;;;;;5104499;28;20035;-44
2022/07/21 10:43:24;;;;;;;6.57;3.17;;;32.10;49.20;;;;;;5111545;28;20474;-44
2022/07/21 10:45:50;;;;;;;5.50;2.97;;;31.70;49.20;;;;;;5098272;28;20023;-45
2022/07/21 10:48:37;;;;;;;6.60;2.80;;;31.00;50.10;;;;;;5124078;28;20516;-49
2022/07/21 10:51:16;;;;;;;6.10;3.00;;;30.70;50.50;;;;;;5111724;28;20035;-43
2022/07/21 10:53:44;;;;;;;6.65;3.05;;;30.80;53.60;;;;;;5118963;28;20043;-45
2022/07/21 10:56:29;;;;;;;3.60;2.23;;;31.30;50.50;;;;;;5117363;28;20034;-42
2022/07/21 10:58:55;;;;;;;6.32;2.85;;;31.70;51.00;;;;;;5091581;28;20119;-45
2022/07/21 11:01:24;;;;;;;5.47;2.88;;;31.80;51.10;;;;;;5110246;28;20107;-49
2022/07/21 11:04:11;;;;;;;5.22;2.72;;;32.40;48.70;;;;;;5105151;28;20023;-48
2022/07/21 11:06:40;;;;;;;5.65;2.90;;;32.70;46.70;;;;;;5113596;28;20025;-44
2022/07/21 11:09:19;;;;;;;4.63;2.50;;;32.50;47.10;;;;;;5112584;28;20088;-43
2022/07/21 11:12:06;;;;;;;5.38;2.90;;;32.00;47.20;;;;;;5106030;28;20077;-43
2022/07/21 11:14:44;;;;;;;4.97;2.60;;;31.70;49.00;;;;;;5111105;27;20114;-52
2022/07/21 11:17:24;;;;;;;5.68;2.90;;;31.30;49.50;;;;;;5111407;27;20081;-45
2022/07/21 11:19:52;;;;;;;3.22;2.47;;;31.10;50.40;;;;;;5108975;27;20035;-47
2022/07/21 11:22:26;;;;;;;5.93;2.80;;;30.50;50.10;;;;;;5114796;27;20038;-45
2022/07/21 11:25:04;;;;;;;6.63;2.78;;;30.60;52.80;;;;;;5116831;27;20103;-44
2022/07/21 11:27:33;;;;;;;5.15;2.90;;;30.70;49.80;;;;;;5119165;27;20103;-49
2022/07/21 11:30:01;;;;;;;5.93;3.35;;;30.90;51.50;;;;;;5118985;27;20031;-45
2022/07/21 11:32:26;;;;;;;5.83;2.80;;;31.60;49.60;;;;;;5100648;28;20031;-44
2022/07/21 11:34:58;;;;;;;7.40;3.13;;;32.50;49.20;;;;;;5108740;28;20092;-50
2022/07/21 11:37:29;;;;;;;4.88;2.90;;;33.10;47.10;;;;;;5115743;27;20031;-50
2022/07/21 11:39:55;;;;;;;6.40;3.40;;;33.10;46.60;;;;;;5114042;27;20031;-45
2022/07/21 11:42:21;;;;;;;5.35;3.33;;;33.10;46.60;;;;;;5117646;27;20016;-47
2022/07/21 11:44:47;;;;;;;6.68;3.17;;;32.80;47.40;;;;;;5116312;27;20118;-45
2022/07/21 11:47:15;;;;;;;5.40;3.25;;;32.40;46.50;;;;;;5113466;28;20110;-44
2022/07/21 11:49:43;;;;;;;9.05;3.42;;;32.10;46.20;;;;;;5127047;27;20030;-43
2022/07/21 11:52:13;;;;;;;9.83;3.53;;;31.60;48.00;;;;;;5112644;27;20020;-47
2022/07/21 11:54:39;;;;;;;7.13;3.58;;;31.40;46.70;;;;;;5113441;27;20047;-45
2022/07/21 11:57:07;;;;;;;10.40;3.63;;;31.00;48.70;;;;;;5117063;27;20107;-44
2022/07/21 11:59:35;;;;;;;5.72;3.10;;;30.70;49.50;;;;;;5122707;27;20016;-45
2022/07/21 12:02:13;;;;;;;8.38;3.53;;;30.50;50.80;;;;;;5113460;28;20084;-49
2022/07/21 12:04:47;;;;;;;4.22;3.00;;;30.00;49.90;;;;;;5107327;28;20027;-47
2022/07/21 12:07:20;;;;;;;5.55;3.42;;;29.80;49.60;;;;;;5113218;28;20373;-44
2022/07/21 12:09:53;;;;;;;6.70;3.35;;;29.60;50.70;;;;;;5112216;28;20057;-47
2022/07/21 12:12:40;;;;;;;6.40;3.10;;;29.30;52.00;;;;;;5114417;27;20032;-55
2022/07/21 12:15:13;;;;;;;8.30;3.95;;;29.10;54.20;;;;;;5114589;27;20032;-41
2022/07/21 12:17:47;;;;;;;7.20;3.58;;;28.90;51.90;;;;;;5106094;28;20114;-51
2022/07/21 12:20:14;;;;;;;5.03;3.30;;;28.50;51.80;;;;;;5107143;28;20024;-47
2022/07/21 12:22:44;;;;;;;4.53;3.13;;;28.50;53.40;;;;;;5114535;27;20047;-47
2022/07/21 12:25:11;;;;;;;8.82;3.55;;;28.10;53.00;;;;;;5113190;27;20031;-49
2022/07/21 12:27:39;;;;;;;5.35;3.35;;;28.30;55.50;;;;;;5107859;27;20016;-46
2022/07/21 12:30:07;;;;;;;6.35;3.20;;;28.50;54.50;;;;;;5119216;27;20035;-47
2022/07/21 12:32:44;;;;;;;5.80;3.10;;;28.60;54.60;;;;;;5128470;27;20091;-42
2022/07/21 12:35:23;;;;;;;6.85;3.70;;;28.80;54.10;;;;;;5109308;27;20042;-45
2022/07/21 12:37:57;;;;;;;6.93;3.35;;;29.00;52.40;;;;;;5115260;27;20103;-45
2022/07/21 12:40:25;;;;;;;6.22;3.58;;;29.30;54.50;;;;;;5109190;27;20033;-45
2022/07/21 12:43:02;;;;;;;6.05;3.42;;;29.40;53.80;;;;;;5120501;27;20023;-51
2022/07/21 12:45:27;;;;;;;6.25;3.40;;;29.50;54.50;;;;;;5112591;28;20024;-47
2022/07/21 12:48:11;;;;;;;6.22;3.25;;;29.20;53.00;;;;;;5113012;27;20019;-47
2022/07/21 12:50:40;;;;;;;4.93;3.58;;;29.30;54.30;;;;;;5109395;27;20015;-46
2022/07/21 12:53:09;;;;;;;7.78;3.60;;;29.10;53.60;;;;;;5120578;27;20415;-48